sensor_id;sensor_type;location;lat;lon;timestamp;P1;durP1;ratioP1;P2;durP2;ratioP2
27566;SDS011;15006;48.584;9.186;2022-09-09T00:07:38;1.95;;;0.80;;
27566;SDS011;15006;48.584;9.186;2022-09-09T00:12:52;0.75;;;0.63;;
27566;SDS011;15006;48.584;9.186;2022-09-09T00:15:42;2.80;;;0.93;;
27566;SDS011;15006;48.584;9.186;2022-09-09T00:21:11;1.30;;;0.68;;
27566;SDS011;15006;48.584;9.186;2022-09-09T00:23:44;4.07;;;0.82;;
27566;SDS011;15006;48.584;9.186;2022-09-09T00:32:13;0.65;;;0.52;;
27566;SDS011;15006;48.584;9.186;2022-09-09T00:34:47;2.97;;;0.90;;
27566;SDS011;15006;48.584;9.186;2022-09-09T00:37:27;1.38;;;0.60;;
27566;SDS011;15006;48.584;9.186;2022-09-09T00:39:59;1.85;;;0.57;;
27566;SDS011;15006;48.584;9.186;2022-09-09T00:42:33;3.20;;;0.93;;
27566;SDS011;15006;48.584;9.186;2022-09-09T00:51:41;2.75;;;0.80;;
27566;SDS011;15006;48.584;9.186;2022-09-09T00:57:46;1.17;;;0.75;;
27566;SDS011;15006;48.584;9.186;2022-09-09T01:00:31;1.63;;;1.15;;
27566;SDS011;15006;48.584;9.186;2022-09-09T01:03:42;1.13;;;0.85;;
27566;SDS011;15006;48.584;9.186;2022-09-09T01:06:42;1.02;;;0.80;;
27566;SDS011;15006;48.584;9.186;2022-09-09T01:14:32;1.48;;;0.60;;
27566;SDS011;15006;48.584;9.186;2022-09-09T01:28:57;2.28;;;0.57;;
27566;SDS011;15006;48.584;9.186;2022-09-09T01:34:13;0.93;;;0.50;;
27566;SDS011;15006;48.584;9.186;2022-09-09T01:36:42;2.53;;;0.85;;
27566;SDS011;15006;48.584;9.186;2022-09-09T01:39:18;1.60;;;1.15;;
27566;SDS011;15006;48.584;9.186;2022-09-09T01:41:45;1.00;;;0.60;;
27566;SDS011;15006;48.584;9.186;2022-09-09T01:44:11;0.80;;;0.60;;
27566;SDS011;15006;48.584;9.186;2022-09-09T01:46:38;1.80;;;0.88;;
27566;SDS011;15006;48.584;9.186;2022-09-09T01:49:05;1.30;;;0.70;;
27566;SDS011;15006;48.584;9.186;2022-09-09T01:51:33;3.28;;;1.05;;
27566;SDS011;15006;48.584;9.186;2022-09-09T01:54:01;0.68;;;0.50;;
27566;SDS011;15006;48.584;9.186;2022-09-09T01:56:50;0.98;;;0.60;;
27566;SDS011;15006;48.584;9.186;2022-09-09T02:05:11;1.50;;;0.60;;
27566;SDS011;15006;48.584;9.186;2022-09-09T02:07:50;2.97;;;0.80;;
27566;SDS011;15006;48.584;9.186;2022-09-09T02:10:48;2.53;;;0.70;;
27566;SDS011;15006;48.584;9.186;2022-09-09T02:13:20;5.30;;;1.02;;
27566;SDS011;15006;48.584;9.186;2022-09-09T02:18:18;1.17;;;0.60;;
27566;SDS011;15006;48.584;9.186;2022-09-09T02:21:03;2.42;;;0.85;;
27566;SDS011;15006;48.584;9.186;2022-09-09T02:23:29;1.85;;;0.85;;
27566;SDS011;15006;48.584;9.186;2022-09-09T02:25:57;0.60;;;0.50;;
27566;SDS011;15006;48.584;9.186;2022-09-09T02:28:24;1.85;;;0.80;;
27566;SDS011;15006;48.584;9.186;2022-09-09T02:30:53;2.92;;;0.95;;
27566;SDS011;15006;48.584;9.186;2022-09-09T02:33:25;2.28;;;0.70;;
27566;SDS011;15006;48.584;9.186;2022-09-09T02:35:59;3.55;;;0.70;;
27566;SDS011;15006;48.584;9.186;2022-09-09T02:38:29;0.73;;;0.50;;
27566;SDS011;15006;48.584;9.186;2022-09-09T02:41:02;0.50;;;0.50;;
27566;SDS011;15006;48.584;9.186;2022-09-09T02:43:33;1.48;;;0.60;;
27566;SDS011;15006;48.584;9.186;2022-09-09T02:48:47;1.67;;;0.60;;
27566;SDS011;15006;48.584;9.186;2022-09-09T02:51:32;4.53;;;0.93;;
27566;SDS011;15006;48.584;9.186;2022-09-09T02:54:10;1.77;;;0.68;;
27566;SDS011;15006;48.584;9.186;2022-09-09T02:57:11;1.52;;;0.70;;
27566;SDS011;15006;48.584;9.186;2022-09-09T02:59:53;1.70;;;0.57;;
27566;SDS011;15006;48.584;9.186;2022-09-09T03:02:22;1.00;;;0.70;;
27566;SDS011;15006;48.584;9.186;2022-09-09T03:04:48;2.47;;;0.75;;
27566;SDS011;15006;48.584;9.186;2022-09-09T03:07:20;1.48;;;1.08;;
27566;SDS011;15006;48.584;9.186;2022-09-09T03:09:46;0.63;;;0.52;;
27566;SDS011;15006;48.584;9.186;2022-09-09T03:12:12;2.58;;;0.82;;
27566;SDS011;15006;48.584;9.186;2022-09-09T03:14:38;0.95;;;0.80;;
27566;SDS011;15006;48.584;9.186;2022-09-09T03:17:05;0.95;;;0.60;;
27566;SDS011;15006;48.584;9.186;2022-09-09T03:19:31;1.42;;;0.82;;
27566;SDS011;15006;48.584;9.186;2022-09-09T03:21:57;3.25;;;0.63;;
27566;SDS011;15006;48.584;9.186;2022-09-09T03:24:24;2.13;;;0.80;;
27566;SDS011;15006;48.584;9.186;2022-09-09T03:26:50;4.07;;;1.02;;
27566;SDS011;15006;48.584;9.186;2022-09-09T03:29:16;2.10;;;1.13;;
27566;SDS011;15006;48.584;9.186;2022-09-09T03:31:44;2.50;;;1.00;;
27566;SDS011;15006;48.584;9.186;2022-09-09T03:34:10;3.88;;;1.00;;
27566;SDS011;15006;48.584;9.186;2022-09-09T03:36:36;3.38;;;1.50;;
27566;SDS011;15006;48.584;9.186;2022-09-09T03:39:02;2.03;;;1.15;;
27566;SDS011;15006;48.584;9.186;2022-09-09T03:41:29;1.58;;;1.40;;
27566;SDS011;15006;48.584;9.186;2022-09-09T03:43:55;1.48;;;1.38;;
27566;SDS011;15006;48.584;9.186;2022-09-09T03:46:23;2.72;;;1.17;;
27566;SDS011;15006;48.584;9.186;2022-09-09T03:48:50;2.35;;;1.17;;
27566;SDS011;15006;48.584;9.186;2022-09-09T03:51:20;3.90;;;1.00;;
27566;SDS011;15006;48.584;9.186;2022-09-09T03:53:47;3.42;;;1.65;;
27566;SDS011;15006;48.584;9.186;2022-09-09T03:56:13;2.53;;;1.30;;
27566;SDS011;15006;48.584;9.186;2022-09-09T03:58:39;3.97;;;1.35;;
27566;SDS011;15006;48.584;9.186;2022-09-09T04:01:07;4.30;;;1.25;;
27566;SDS011;15006;48.584;9.186;2022-09-09T04:03:35;2.17;;;1.10;;
27566;SDS011;15006;48.584;9.186;2022-09-09T04:06:02;1.55;;;1.20;;
27566;SDS011;15006;48.584;9.186;2022-09-09T04:08:30;3.03;;;1.85;;
27566;SDS011;15006;48.584;9.186;2022-09-09T04:10:56;5.28;;;1.20;;
27566;SDS011;15006;48.584;9.186;2022-09-09T04:13:23;1.13;;;0.93;;
27566;SDS011;15006;48.584;9.186;2022-09-09T04:15:54;1.20;;;1.02;;
27566;SDS011;15006;48.584;9.186;2022-09-09T04:18:23;0.93;;;0.77;;
27566;SDS011;15006;48.584;9.186;2022-09-09T04:20:51;1.77;;;1.00;;
27566;SDS011;15006;48.584;9.186;2022-09-09T04:23:18;4.35;;;1.10;;
27566;SDS011;15006;48.584;9.186;2022-09-09T04:25:48;1.30;;;0.90;;
27566;SDS011;15006;48.584;9.186;2022-09-09T04:28:17;2.20;;;0.90;;
27566;SDS011;15006;48.584;9.186;2022-09-09T04:30:46;2.47;;;1.15;;
27566;SDS011;15006;48.584;9.186;2022-09-09T04:33:12;1.35;;;1.13;;
27566;SDS011;15006;48.584;9.186;2022-09-09T04:35:43;1.33;;;1.00;;
27566;SDS011;15006;48.584;9.186;2022-09-09T04:38:15;2.67;;;1.10;;
27566;SDS011;15006;48.584;9.186;2022-09-09T04:40:49;1.45;;;1.00;;
27566;SDS011;15006;48.584;9.186;2022-09-09T04:43:17;2.83;;;0.95;;
27566;SDS011;15006;48.584;9.186;2022-09-09T04:45:46;0.88;;;0.70;;
27566;SDS011;15006;48.584;9.186;2022-09-09T04:48:14;3.73;;;1.03;;
27566;SDS011;15006;48.584;9.186;2022-09-09T04:50:40;2.90;;;1.13;;
27566;SDS011;15006;48.584;9.186;2022-09-09T04:53:06;2.88;;;1.45;;
27566;SDS011;15006;48.584;9.186;2022-09-09T04:55:32;2.08;;;1.05;;
27566;SDS011;15006;48.584;9.186;2022-09-09T04:58:03;1.50;;;0.95;;
27566;SDS011;15006;48.584;9.186;2022-09-09T05:00:37;1.67;;;1.00;;
27566;SDS011;15006;48.584;9.186;2022-09-09T05:03:03;1.13;;;0.90;;
27566;SDS011;15006;48.584;9.186;2022-09-09T05:05:31;0.80;;;0.80;;
27566;SDS011;15006;48.584;9.186;2022-09-09T05:08:02;1.67;;;0.63;;
27566;SDS011;15006;48.584;9.186;2022-09-09T05:10:30;2.20;;;0.90;;
27566;SDS011;15006;48.584;9.186;2022-09-09T05:12:57;1.73;;;1.10;;
27566;SDS011;15006;48.584;9.186;2022-09-09T05:15:23;1.45;;;0.80;;
27566;SDS011;15006;48.584;9.186;2022-09-09T05:17:50;2.25;;;0.82;;
27566;SDS011;15006;48.584;9.186;2022-09-09T05:20:18;1.17;;;0.80;;
27566;SDS011;15006;48.584;9.186;2022-09-09T05:22:44;2.10;;;0.95;;
27566;SDS011;15006;48.584;9.186;2022-09-09T05:25:10;1.15;;;1.05;;
27566;SDS011;15006;48.584;9.186;2022-09-09T05:27:36;2.35;;;0.90;;
27566;SDS011;15006;48.584;9.186;2022-09-09T05:30:02;1.88;;;0.95;;
27566;SDS011;15006;48.584;9.186;2022-09-09T05:32:30;6.13;;;1.08;;
27566;SDS011;15006;48.584;9.186;2022-09-09T05:34:59;3.47;;;1.48;;
27566;SDS011;15006;48.584;9.186;2022-09-09T05:37:26;1.45;;;0.90;;
27566;SDS011;15006;48.584;9.186;2022-09-09T05:39:52;1.38;;;1.20;;
27566;SDS011;15006;48.584;9.186;2022-09-09T05:42:18;1.70;;;1.00;;
27566;SDS011;15006;48.584;9.186;2022-09-09T05:44:45;1.58;;;1.27;;
27566;SDS011;15006;48.584;9.186;2022-09-09T05:47:10;0.90;;;0.77;;
27566;SDS011;15006;48.584;9.186;2022-09-09T05:49:36;1.00;;;0.93;;
27566;SDS011;15006;48.584;9.186;2022-09-09T05:52:02;3.17;;;0.85;;
27566;SDS011;15006;48.584;9.186;2022-09-09T05:54:29;1.63;;;0.95;;
27566;SDS011;15006;48.584;9.186;2022-09-09T05:56:55;0.90;;;0.68;;
27566;SDS011;15006;48.584;9.186;2022-09-09T05:59:21;1.88;;;0.65;;
27566;SDS011;15006;48.584;9.186;2022-09-09T06:01:48;0.95;;;0.90;;
27566;SDS011;15006;48.584;9.186;2022-09-09T06:04:14;0.88;;;0.73;;
27566;SDS011;15006;48.584;9.186;2022-09-09T06:06:41;3.38;;;1.20;;
27566;SDS011;15006;48.584;9.186;2022-09-09T06:09:07;1.67;;;0.90;;
27566;SDS011;15006;48.584;9.186;2022-09-09T06:11:36;1.60;;;1.27;;
27566;SDS011;15006;48.584;9.186;2022-09-09T06:14:04;1.60;;;1.13;;
27566;SDS011;15006;48.584;9.186;2022-09-09T06:16:31;1.92;;;1.05;;
27566;SDS011;15006;48.584;9.186;2022-09-09T06:18:58;1.10;;;0.80;;
27566;SDS011;15006;48.584;9.186;2022-09-09T06:21:32;1.13;;;0.88;;
27566;SDS011;15006;48.584;9.186;2022-09-09T06:24:02;1.90;;;1.20;;
27566;SDS011;15006;48.584;9.186;2022-09-09T06:26:32;5.28;;;1.20;;
27566;SDS011;15006;48.584;9.186;2022-09-09T06:29:05;1.77;;;0.80;;
27566;SDS011;15006;48.584;9.186;2022-09-09T06:31:33;1.42;;;0.80;;
27566;SDS011;15006;48.584;9.186;2022-09-09T06:34:03;1.80;;;0.95;;
27566;SDS011;15006;48.584;9.186;2022-09-09T06:36:32;1.60;;;1.00;;
27566;SDS011;15006;48.584;9.186;2022-09-09T06:39:02;1.90;;;0.85;;
27566;SDS011;15006;48.584;9.186;2022-09-09T06:41:30;1.13;;;0.80;;
27566;SDS011;15006;48.584;9.186;2022-09-09T06:43:58;3.63;;;0.88;;
27566;SDS011;15006;48.584;9.186;2022-09-09T06:46:27;1.70;;;0.90;;
27566;SDS011;15006;48.584;9.186;2022-09-09T06:48:56;3.22;;;1.00;;
27566;SDS011;15006;48.584;9.186;2022-09-09T06:51:25;3.33;;;0.90;;
27566;SDS011;15006;48.584;9.186;2022-09-09T06:56:26;2.28;;;1.10;;
27566;SDS011;15006;48.584;9.186;2022-09-09T06:59:06;2.30;;;0.95;;
27566;SDS011;15006;48.584;9.186;2022-09-09T07:01:38;0.73;;;0.70;;
27566;SDS011;15006;48.584;9.186;2022-09-09T07:04:06;3.13;;;0.80;;
27566;SDS011;15006;48.584;9.186;2022-09-09T07:06:34;1.60;;;0.70;;
27566;SDS011;15006;48.584;9.186;2022-09-09T07:09:03;1.20;;;1.00;;
27566;SDS011;15006;48.584;9.186;2022-09-09T07:14:03;2.73;;;0.90;;
27566;SDS011;15006;48.584;9.186;2022-09-09T07:16:29;2.08;;;1.08;;
27566;SDS011;15006;48.584;9.186;2022-09-09T07:18:58;1.38;;;0.77;;
27566;SDS011;15006;48.584;9.186;2022-09-09T07:21:26;1.50;;;0.80;;
27566;SDS011;15006;48.584;9.186;2022-09-09T07:23:54;1.25;;;0.80;;
27566;SDS011;15006;48.584;9.186;2022-09-09T07:26:21;2.35;;;0.70;;
27566;SDS011;15006;48.584;9.186;2022-09-09T07:28:51;1.20;;;0.95;;
27566;SDS011;15006;48.584;9.186;2022-09-09T07:31:18;2.10;;;1.15;;
27566;SDS011;15006;48.584;9.186;2022-09-09T07:33:56;1.65;;;0.93;;
27566;SDS011;15006;48.584;9.186;2022-09-09T07:36:23;2.75;;;1.00;;
27566;SDS011;15006;48.584;9.186;2022-09-09T07:38:56;1.85;;;0.85;;
27566;SDS011;15006;48.584;9.186;2022-09-09T07:41:29;1.65;;;0.90;;
27566;SDS011;15006;48.584;9.186;2022-09-09T07:44:08;1.77;;;0.70;;
27566;SDS011;15006;48.584;9.186;2022-09-09T07:46:46;1.98;;;0.80;;
27566;SDS011;15006;48.584;9.186;2022-09-09T07:49:13;2.20;;;1.10;;
27566;SDS011;15006;48.584;9.186;2022-09-09T07:51:41;1.52;;;1.00;;
27566;SDS011;15006;48.584;9.186;2022-09-09T07:54:11;1.58;;;0.90;;
27566;SDS011;15006;48.584;9.186;2022-09-09T07:56:40;2.53;;;0.90;;
27566;SDS011;15006;48.584;9.186;2022-09-09T07:59:07;2.10;;;0.80;;
27566;SDS011;15006;48.584;9.186;2022-09-09T08:01:35;1.40;;;0.88;;
27566;SDS011;15006;48.584;9.186;2022-09-09T08:04:09;3.75;;;0.80;;
27566;SDS011;15006;48.584;9.186;2022-09-09T08:06:43;1.85;;;0.70;;
27566;SDS011;15006;48.584;9.186;2022-09-09T08:09:21;3.17;;;1.00;;
27566;SDS011;15006;48.584;9.186;2022-09-09T08:11:50;2.25;;;1.10;;
27566;SDS011;15006;48.584;9.186;2022-09-09T08:14:16;2.00;;;0.80;;
27566;SDS011;15006;48.584;9.186;2022-09-09T08:16:44;5.85;;;1.05;;
27566;SDS011;15006;48.584;9.186;2022-09-09T08:19:13;3.80;;;0.80;;
27566;SDS011;15006;48.584;9.186;2022-09-09T08:21:40;3.92;;;1.10;;
27566;SDS011;15006;48.584;9.186;2022-09-09T08:24:09;1.88;;;0.70;;
27566;SDS011;15006;48.584;9.186;2022-09-09T08:26:38;4.15;;;1.17;;
27566;SDS011;15006;48.584;9.186;2022-09-09T08:29:09;1.27;;;0.60;;
27566;SDS011;15006;48.584;9.186;2022-09-09T08:31:44;1.52;;;1.23;;
27566;SDS011;15006;48.584;9.186;2022-09-09T08:34:13;8.82;;;1.00;;
27566;SDS011;15006;48.584;9.186;2022-09-09T08:36:41;1.08;;;0.70;;
27566;SDS011;15006;48.584;9.186;2022-09-09T08:39:10;2.17;;;1.00;;
27566;SDS011;15006;48.584;9.186;2022-09-09T08:41:45;1.48;;;0.98;;
27566;SDS011;15006;48.584;9.186;2022-09-09T08:55:51;0.90;;;0.63;;
27566;SDS011;15006;48.584;9.186;2022-09-09T09:12:42;2.47;;;0.90;;
27566;SDS011;15006;48.584;9.186;2022-09-09T09:15:21;4.78;;;0.80;;
27566;SDS011;15006;48.584;9.186;2022-09-09T09:17:52;1.80;;;0.75;;
27566;SDS011;15006;48.584;9.186;2022-09-09T09:20:21;1.63;;;0.80;;
27566;SDS011;15006;48.584;9.186;2022-09-09T09:23:02;1.83;;;0.60;;
27566;SDS011;15006;48.584;9.186;2022-09-09T09:25:34;2.28;;;0.70;;
27566;SDS011;15006;48.584;9.186;2022-09-09T09:28:10;1.15;;;0.73;;
27566;SDS011;15006;48.584;9.186;2022-09-09T09:36:18;1.10;;;0.40;;
27566;SDS011;15006;48.584;9.186;2022-09-09T09:38:55;3.33;;;0.68;;
27566;SDS011;15006;48.584;9.186;2022-09-09T09:41:30;3.47;;;0.80;;
27566;SDS011;15006;48.584;9.186;2022-09-09T09:43:59;1.33;;;0.70;;
27566;SDS011;15006;48.584;9.186;2022-09-09T09:46:27;1.38;;;0.70;;
27566;SDS011;15006;48.584;9.186;2022-09-09T09:49:00;1.63;;;0.70;;
27566;SDS011;15006;48.584;9.186;2022-09-09T09:51:31;1.67;;;0.70;;
27566;SDS011;15006;48.584;9.186;2022-09-09T09:54:04;0.60;;;0.45;;
27566;SDS011;15006;48.584;9.186;2022-09-09T09:56:44;3.03;;;1.00;;
27566;SDS011;15006;48.584;9.186;2022-09-09T09:59:23;2.40;;;0.55;;
27566;SDS011;15006;48.584;9.186;2022-09-09T10:02:13;1.75;;;0.80;;
27566;SDS011;15006;48.584;9.186;2022-09-09T10:04:43;2.90;;;0.73;;
27566;SDS011;15006;48.584;9.186;2022-09-09T10:07:22;2.10;;;0.80;;
27566;SDS011;15006;48.584;9.186;2022-09-09T10:10:01;1.75;;;0.77;;
27566;SDS011;15006;48.584;9.186;2022-09-09T10:16:21;1.13;;;0.45;;
27566;SDS011;15006;48.584;9.186;2022-09-09T10:18:38;3.13;;;0.68;;
27566;SDS011;15006;48.584;9.186;2022-09-09T10:33:22;1.77;;;0.50;;
27566;SDS011;15006;48.584;9.186;2022-09-09T10:36:22;2.25;;;0.60;;
27566;SDS011;15006;48.584;9.186;2022-09-09T10:38:58;6.40;;;1.00;;
27566;SDS011;15006;48.584;9.186;2022-09-09T10:42:06;2.67;;;0.70;;
27566;SDS011;15006;48.584;9.186;2022-09-09T10:50:40;1.30;;;0.60;;
27566;SDS011;15006;48.584;9.186;2022-09-09T10:53:18;4.43;;;0.95;;
27566;SDS011;15006;48.584;9.186;2022-09-09T10:56:08;1.17;;;0.47;;
27566;SDS011;15006;48.584;9.186;2022-09-09T10:58:50;2.55;;;0.50;;
27566;SDS011;15006;48.584;9.186;2022-09-09T11:04:17;5.70;;;1.58;;
27566;SDS011;15006;48.584;9.186;2022-09-09T11:07:00;2.28;;;0.80;;
27566;SDS011;15006;48.584;9.186;2022-09-09T11:09:36;2.80;;;0.80;;
27566;SDS011;15006;48.584;9.186;2022-09-09T11:12:15;3.03;;;0.70;;
27566;SDS011;15006;48.584;9.186;2022-09-09T11:14:47;5.47;;;1.77;;
27566;SDS011;15006;48.584;9.186;2022-09-09T11:17:21;0.80;;;0.47;;
27566;SDS011;15006;48.584;9.186;2022-09-09T11:19:52;0.63;;;0.30;;
27566;SDS011;15006;48.584;9.186;2022-09-09T11:22:37;1.92;;;0.40;;
27566;SDS011;15006;48.584;9.186;2022-09-09T11:25:30;5.00;;;1.00;;
27566;SDS011;15006;48.584;9.186;2022-09-09T11:42:33;1.45;;;0.30;;
27566;SDS011;15006;48.584;9.186;2022-09-09T11:45:08;1.13;;;0.50;;
27566;SDS011;15006;48.584;9.186;2022-09-09T11:47:50;0.75;;;0.40;;
27566;SDS011;15006;48.584;9.186;2022-09-09T11:52:45;0.98;;;0.32;;
27566;SDS011;15006;48.584;9.186;2022-09-09T11:55:26;0.55;;;0.28;;
27566;SDS011;15006;48.584;9.186;2022-09-09T11:57:58;0.40;;;0.20;;
27566;SDS011;15006;48.584;9.186;2022-09-09T12:00:37;0.40;;;0.20;;
27566;SDS011;15006;48.584;9.186;2022-09-09T12:06:12;0.30;;;0.20;;
27566;SDS011;15006;48.584;9.186;2022-09-09T12:08:53;1.45;;;0.20;;
27566;SDS011;15006;48.584;9.186;2022-09-09T12:11:30;0.90;;;0.47;;
27566;SDS011;15006;48.584;9.186;2022-09-09T12:13:57;0.45;;;0.20;;
27566;SDS011;15006;48.584;9.186;2022-09-09T12:16:27;2.45;;;0.43;;
27566;SDS011;15006;48.584;9.186;2022-09-09T12:19:04;1.35;;;0.30;;
27566;SDS011;15006;48.584;9.186;2022-09-09T12:21:52;0.85;;;0.32;;
27566;SDS011;15006;48.584;9.186;2022-09-09T12:24:36;3.50;;;0.35;;
27566;SDS011;15006;48.584;9.186;2022-09-09T12:30:00;3.83;;;0.30;;
27566;SDS011;15006;48.584;9.186;2022-09-09T12:32:35;1.60;;;0.30;;
27566;SDS011;15006;48.584;9.186;2022-09-09T12:35:03;1.90;;;0.47;;
27566;SDS011;15006;48.584;9.186;2022-09-09T12:37:41;1.70;;;0.43;;
27566;SDS011;15006;48.584;9.186;2022-09-09T12:42:52;1.58;;;0.35;;
27566;SDS011;15006;48.584;9.186;2022-09-09T12:45:23;2.50;;;0.40;;
27566;SDS011;15006;48.584;9.186;2022-09-09T12:47:53;1.15;;;0.40;;
27566;SDS011;15006;48.584;9.186;2022-09-09T12:50:28;0.70;;;0.30;;
27566;SDS011;15006;48.584;9.186;2022-09-09T12:53:02;0.90;;;0.40;;
27566;SDS011;15006;48.584;9.186;2022-09-09T12:55:55;1.42;;;0.52;;
27566;SDS011;15006;48.584;9.186;2022-09-09T12:58:25;0.75;;;0.30;;
27566;SDS011;15006;48.584;9.186;2022-09-09T13:00:54;1.98;;;0.60;;
27566;SDS011;15006;48.584;9.186;2022-09-09T13:03:22;0.50;;;0.20;;
27566;SDS011;15006;48.584;9.186;2022-09-09T13:05:52;0.50;;;0.30;;
27566;SDS011;15006;48.584;9.186;2022-09-09T13:08:25;1.52;;;0.40;;
27566;SDS011;15006;48.584;9.186;2022-09-09T13:11:02;1.20;;;0.80;;
27566;SDS011;15006;48.584;9.186;2022-09-09T13:13:36;0.90;;;0.30;;
27566;SDS011;15006;48.584;9.186;2022-09-09T13:16:06;1.40;;;0.30;;
27566;SDS011;15006;48.584;9.186;2022-09-09T13:18:50;1.52;;;0.40;;
27566;SDS011;15006;48.584;9.186;2022-09-09T13:21:18;1.40;;;0.50;;
27566;SDS011;15006;48.584;9.186;2022-09-09T13:23:48;2.00;;;0.60;;
27566;SDS011;15006;48.584;9.186;2022-09-09T13:26:23;2.78;;;0.90;;
27566;SDS011;15006;48.584;9.186;2022-09-09T13:28:53;2.33;;;0.70;;
27566;SDS011;15006;48.584;9.186;2022-09-09T13:31:21;2.08;;;0.60;;
27566;SDS011;15006;48.584;9.186;2022-09-09T13:33:51;2.63;;;0.68;;
27566;SDS011;15006;48.584;9.186;2022-09-09T13:36:27;1.98;;;0.75;;
27566;SDS011;15006;48.584;9.186;2022-09-09T13:39:01;1.40;;;0.63;;
27566;SDS011;15006;48.584;9.186;2022-09-09T13:41:36;2.50;;;0.65;;
27566;SDS011;15006;48.584;9.186;2022-09-09T13:44:28;2.03;;;0.63;;
27566;SDS011;15006;48.584;9.186;2022-09-09T13:49:44;0.45;;;0.20;;
27566;SDS011;15006;48.584;9.186;2022-09-09T13:52:12;1.30;;;0.40;;
27566;SDS011;15006;48.584;9.186;2022-09-09T13:54:47;2.05;;;0.30;;
27566;SDS011;15006;48.584;9.186;2022-09-09T13:57:24;0.95;;;0.50;;
27566;SDS011;15006;48.584;9.186;2022-09-09T14:00:00;1.73;;;0.57;;
27566;SDS011;15006;48.584;9.186;2022-09-09T14:02:31;2.13;;;0.65;;
27566;SDS011;15006;48.584;9.186;2022-09-09T14:04:58;0.65;;;0.40;;
27566;SDS011;15006;48.584;9.186;2022-09-09T14:07:25;1.00;;;0.43;;
27566;SDS011;15006;48.584;9.186;2022-09-09T14:09:54;2.90;;;0.50;;
27566;SDS011;15006;48.584;9.186;2022-09-09T14:12:20;1.38;;;0.40;;
27566;SDS011;15006;48.584;9.186;2022-09-09T14:14:46;0.90;;;0.30;;
27566;SDS011;15006;48.584;9.186;2022-09-09T14:17:12;0.60;;;0.30;;
27566;SDS011;15006;48.584;9.186;2022-09-09T14:19:39;2.17;;;0.47;;
27566;SDS011;15006;48.584;9.186;2022-09-09T14:22:06;0.98;;;0.30;;
27566;SDS011;15006;48.584;9.186;2022-09-09T14:24:32;0.63;;;0.43;;
27566;SDS011;15006;48.584;9.186;2022-09-09T14:26:59;0.82;;;0.40;;
27566;SDS011;15006;48.584;9.186;2022-09-09T14:29:27;0.90;;;0.30;;
27566;SDS011;15006;48.584;9.186;2022-09-09T14:31:53;1.55;;;0.30;;
27566;SDS011;15006;48.584;9.186;2022-09-09T14:34:20;2.58;;;0.60;;
27566;SDS011;15006;48.584;9.186;2022-09-09T14:36:46;1.02;;;0.50;;
27566;SDS011;15006;48.584;9.186;2022-09-09T14:39:12;1.92;;;0.30;;
27566;SDS011;15006;48.584;9.186;2022-09-09T14:41:41;0.80;;;0.40;;
27566;SDS011;15006;48.584;9.186;2022-09-09T14:44:07;2.55;;;0.30;;
27566;SDS011;15006;48.584;9.186;2022-09-09T14:46:39;0.98;;;0.40;;
27566;SDS011;15006;48.584;9.186;2022-09-09T14:49:05;0.60;;;0.20;;
27566;SDS011;15006;48.584;9.186;2022-09-09T14:51:31;3.58;;;0.60;;
27566;SDS011;15006;48.584;9.186;2022-09-09T14:53:57;3.45;;;1.75;;
27566;SDS011;15006;48.584;9.186;2022-09-09T14:56:26;7.85;;;2.60;;
27566;SDS011;15006;48.584;9.186;2022-09-09T14:58:55;4.57;;;0.82;;
27566;SDS011;15006;48.584;9.186;2022-09-09T15:01:23;1.08;;;0.40;;
27566;SDS011;15006;48.584;9.186;2022-09-09T15:03:53;0.73;;;0.35;;
27566;SDS011;15006;48.584;9.186;2022-09-09T15:06:23;0.47;;;0.20;;
27566;SDS011;15006;48.584;9.186;2022-09-09T15:08:52;4.30;;;0.30;;
27566;SDS011;15006;48.584;9.186;2022-09-09T15:13:50;0.55;;;0.30;;
27566;SDS011;15006;48.584;9.186;2022-09-09T15:16:21;1.15;;;0.50;;
27566;SDS011;15006;48.584;9.186;2022-09-09T15:18:50;1.27;;;0.65;;
27566;SDS011;15006;48.584;9.186;2022-09-09T15:21:23;1.67;;;0.20;;
27566;SDS011;15006;48.584;9.186;2022-09-09T15:23:57;1.85;;;0.55;;
27566;SDS011;15006;48.584;9.186;2022-09-09T15:26:24;0.65;;;0.28;;
27566;SDS011;15006;48.584;9.186;2022-09-09T15:28:52;0.80;;;0.30;;
27566;SDS011;15006;48.584;9.186;2022-09-09T15:31:24;2.10;;;0.30;;
27566;SDS011;15006;48.584;9.186;2022-09-09T15:33:56;4.35;;;0.60;;
27566;SDS011;15006;48.584;9.186;2022-09-09T15:39:00;1.40;;;0.40;;
27566;SDS011;15006;48.584;9.186;2022-09-09T15:41:29;1.92;;;0.60;;
27566;SDS011;15006;48.584;9.186;2022-09-09T15:44:04;3.35;;;0.45;;
27566;SDS011;15006;48.584;9.186;2022-09-09T15:49:05;0.93;;;0.30;;
27566;SDS011;15006;48.584;9.186;2022-09-09T15:51:37;1.65;;;0.55;;
27566;SDS011;15006;48.584;9.186;2022-09-09T15:59:27;0.43;;;0.28;;
27566;SDS011;15006;48.584;9.186;2022-09-09T16:01:55;0.98;;;0.28;;
27566;SDS011;15006;48.584;9.186;2022-09-09T16:10:39;0.85;;;0.30;;
27566;SDS011;15006;48.584;9.186;2022-09-09T16:13:05;1.10;;;0.40;;
27566;SDS011;15006;48.584;9.186;2022-09-09T16:26:44;1.23;;;0.35;;
27566;SDS011;15006;48.584;9.186;2022-09-09T16:29:15;0.80;;;0.20;;
27566;SDS011;15006;48.584;9.186;2022-09-09T16:31:43;2.35;;;0.45;;
27566;SDS011;15006;48.584;9.186;2022-09-09T16:34:10;2.38;;;0.50;;
27566;SDS011;15006;48.584;9.186;2022-09-09T16:36:37;0.80;;;0.40;;
27566;SDS011;15006;48.584;9.186;2022-09-09T16:39:06;0.63;;;0.20;;
27566;SDS011;15006;48.584;9.186;2022-09-09T16:41:36;0.70;;;0.32;;
27566;SDS011;15006;48.584;9.186;2022-09-09T16:44:04;1.17;;;0.25;;
27566;SDS011;15006;48.584;9.186;2022-09-09T16:46:34;1.02;;;0.30;;
27566;SDS011;15006;48.584;9.186;2022-09-09T16:49:05;1.02;;;0.40;;
27566;SDS011;15006;48.584;9.186;2022-09-09T16:51:35;0.52;;;0.40;;
27566;SDS011;15006;48.584;9.186;2022-09-09T16:54:13;1.80;;;0.40;;
27566;SDS011;15006;48.584;9.186;2022-09-09T16:56:43;1.92;;;0.43;;
27566;SDS011;15006;48.584;9.186;2022-09-09T16:59:21;1.17;;;0.47;;
27566;SDS011;15006;48.584;9.186;2022-09-09T17:01:49;1.23;;;0.50;;
27566;SDS011;15006;48.584;9.186;2022-09-09T17:04:20;1.45;;;0.52;;
27566;SDS011;15006;48.584;9.186;2022-09-09T17:06:49;0.82;;;0.20;;
27566;SDS011;15006;48.584;9.186;2022-09-09T17:09:18;0.82;;;0.30;;
27566;SDS011;15006;48.584;9.186;2022-09-09T17:11:45;0.43;;;0.30;;
27566;SDS011;15006;48.584;9.186;2022-09-09T17:14:14;0.93;;;0.22;;
27566;SDS011;15006;48.584;9.186;2022-09-09T17:16:44;0.85;;;0.20;;
27566;SDS011;15006;48.584;9.186;2022-09-09T17:19:56;0.68;;;0.30;;
27566;SDS011;15006;48.584;9.186;2022-09-09T17:22:23;0.55;;;0.25;;
27566;SDS011;15006;48.584;9.186;2022-09-09T17:24:51;1.65;;;0.25;;
27566;SDS011;15006;48.584;9.186;2022-09-09T17:27:20;0.20;;;0.10;;
27566;SDS011;15006;48.584;9.186;2022-09-09T17:29:50;1.00;;;0.20;;
27566;SDS011;15006;48.584;9.186;2022-09-09T17:32:16;0.57;;;0.40;;
27566;SDS011;15006;48.584;9.186;2022-09-09T17:34:43;0.68;;;0.30;;
27566;SDS011;15006;48.584;9.186;2022-09-09T17:37:11;0.75;;;0.30;;
27566;SDS011;15006;48.584;9.186;2022-09-09T17:39:38;0.32;;;0.20;;
27566;SDS011;15006;48.584;9.186;2022-09-09T17:42:05;0.40;;;0.40;;
27566;SDS011;15006;48.584;9.186;2022-09-09T17:44:32;0.45;;;0.20;;
27566;SDS011;15006;48.584;9.186;2022-09-09T17:46:58;0.45;;;0.20;;
27566;SDS011;15006;48.584;9.186;2022-09-09T17:49:25;3.08;;;0.30;;
27566;SDS011;15006;48.584;9.186;2022-09-09T17:51:51;0.73;;;0.40;;
27566;SDS011;15006;48.584;9.186;2022-09-09T17:54:19;0.95;;;0.30;;
27566;SDS011;15006;48.584;9.186;2022-09-09T17:56:49;1.00;;;0.30;;
27566;SDS011;15006;48.584;9.186;2022-09-09T17:59:16;0.57;;;0.20;;
27566;SDS011;15006;48.584;9.186;2022-09-09T18:01:44;0.93;;;0.30;;
27566;SDS011;15006;48.584;9.186;2022-09-09T18:04:14;0.95;;;0.50;;
27566;SDS011;15006;48.584;9.186;2022-09-09T18:06:45;0.52;;;0.20;;
27566;SDS011;15006;48.584;9.186;2022-09-09T18:09:15;0.88;;;0.38;;
27566;SDS011;15006;48.584;9.186;2022-09-09T18:11:46;1.98;;;0.40;;